Time;durP1;ratioP1;P1;durP2;ratioP2;P2;SDS_P1;SDS_P2;PMS_P1;PMS_P2;Temp;Humidity;BMP_temperature;BMP_pressure;BME280_temperature;BME280_humidity;BME280_pressure;Samples;Min_cycle;Max_cycle;Signal;HPM_P1;HPM_P2
2023/08/03 00:00:14;;;;;;;1.95;0.95;;;17.30;99.60;;;;;;5071819;28;20048;-74
2023/08/03 00:02:40;;;;;;;1.92;0.80;;;17.30;99.80;;;;;;5072790;28;20025;-74
2023/08/03 00:05:06;;;;;;;1.02;0.52;;;17.30;99.80;;;;;;5071892;28;20087;-75
2023/08/03 00:07:32;;;;;;;1.42;0.82;;;17.40;99.80;;;;;;5072761;28;20083;-74
2023/08/03 00:09:58;;;;;;;0.65;0.60;;;17.30;99.90;;;;;;5055174;28;20029;-73
2023/08/03 00:12:23;;;;;;;1.70;0.90;;;17.30;99.90;;;;;;5072596;28;20036;-74
2023/08/03 00:14:50;;;;;;;0.95;0.82;;;17.30;99.90;;;;;;5071636;28;20017;-73
2023/08/03 00:17:16;;;;;;;2.75;0.98;;;17.30;99.90;;;;;;5072649;28;20043;-73
2023/08/03 00:19:41;;;;;;;1.77;1.05;;;17.30;99.90;;;;;;5072624;28;20025;-75
2023/08/03 00:22:08;;;;;;;1.45;1.02;;;17.30;99.90;;;;;;5071728;28;20085;-74
2023/08/03 00:24:34;;;;;;;2.58;1.02;;;17.30;99.90;;;;;;5072580;28;20097;-74
2023/08/03 00:26:59;;;;;;;1.92;1.00;;;17.30;99.90;;;;;;5071642;28;20029;-73
2023/08/03 00:29:25;;;;;;;1.83;1.05;;;17.30;99.90;;;;;;5072666;28;20511;-74
2023/08/03 00:31:51;;;;;;;3.63;0.98;;;17.40;99.90;;;;;;5073943;28;20096;-75
2023/08/03 00:34:16;;;;;;;2.55;1.15;;;17.40;99.90;;;;;;5075125;28;20029;-75
2023/08/03 00:36:42;;;;;;;1.05;0.90;;;17.40;99.90;;;;;;5074876;28;20045;-75
2023/08/03 00:39:07;;;;;;;2.78;1.20;;;17.40;99.90;;;;;;5075108;28;20059;-75
2023/08/03 00:41:33;;;;;;;1.58;1.33;;;17.50;99.90;;;;;;5075977;28;20033;-75
2023/08/03 00:43:59;;;;;;;2.38;1.40;;;17.40;99.90;;;;;;5075043;28;20029;-75
2023/08/03 00:46:25;;;;;;;2.40;1.50;;;17.40;99.90;;;;;;5075956;28;20029;-75
2023/08/03 00:48:50;;;;;;;4.15;1.73;;;17.40;99.90;;;;;;5075889;28;20029;-75
2023/08/03 00:51:16;;;;;;;4.07;1.90;;;17.40;99.90;;;;;;5075757;28;20476;-75
2023/08/03 00:53:45;;;;;;;6.30;2.03;;;17.40;99.90;;;;;;5075787;28;20021;-75
2023/08/03 00:56:14;;;;;;;5.05;2.13;;;17.40;99.90;;;;;;5075756;28;20039;-74
2023/08/03 00:58:40;;;;;;;5.55;2.30;;;17.40;99.90;;;;;;5075814;28;20060;-73
2023/08/03 01:01:07;;;;;;;4.72;2.60;;;17.40;99.90;;;;;;5075643;28;20021;-74
2023/08/03 01:03:32;;;;;;;3.92;2.83;;;17.50;99.90;;;;;;5075625;28;20025;-74
2023/08/03 01:05:58;;;;;;;4.63;2.53;;;17.50;99.90;;;;;;5074602;28;20032;-73
2023/08/03 01:08:25;;;;;;;6.38;3.15;;;17.50;99.90;;;;;;5074591;28;20444;-74
2023/08/03 01:10:54;;;;;;;5.70;3.50;;;17.50;99.90;;;;;;5075489;28;20025;-74
2023/08/03 01:13:21;;;;;;;9.32;4.20;;;17.50;99.90;;;;;;5074376;28;20040;-75
2023/08/03 01:15:46;;;;;;;7.50;4.40;;;17.50;99.90;;;;;;5075349;28;20021;-75
2023/08/03 01:18:12;;;;;;;9.07;4.53;;;17.60;99.90;;;;;;5074366;28;20033;-74
2023/08/03 01:20:40;;;;;;;8.35;3.97;;;17.60;99.90;;;;;;5057709;28;20472;-74
2023/08/03 01:23:06;;;;;;;8.68;4.00;;;17.50;99.90;;;;;;5074281;28;20029;-74
2023/08/03 01:25:33;;;;;;;4.32;3.40;;;17.60;99.90;;;;;;5075207;28;20025;-75
2023/08/03 01:27:59;;;;;;;6.30;3.40;;;17.60;99.90;;;;;;5074242;28;20032;-74
2023/08/03 01:30:25;;;;;;;6.63;3.53;;;17.50;99.90;;;;;;5074160;28;20024;-75
2023/08/03 01:32:51;;;;;;;5.28;3.55;;;17.50;99.90;;;;;;5073969;28;20022;-74
2023/08/03 01:35:17;;;;;;;6.80;3.28;;;17.60;99.90;;;;;;5057377;28;20028;-74
2023/08/03 01:37:42;;;;;;;6.25;3.63;;;17.50;99.90;;;;;;5074721;28;20136;-76
2023/08/03 01:40:10;;;;;;;5.60;3.30;;;17.50;99.90;;;;;;5074058;28;20025;-74
2023/08/03 01:42:36;;;;;;;6.20;3.55;;;17.50;99.90;;;;;;5073804;28;20018;-73
2023/08/03 01:45:03;;;;;;;6.10;3.92;;;17.50;99.90;;;;;;5057195;28;20025;-74
2023/08/03 01:47:29;;;;;;;7.88;4.45;;;17.50;99.90;;;;;;5074779;28;20025;-74
2023/08/03 01:49:54;;;;;;;8.15;4.75;;;17.60;99.90;;;;;;5074695;28;20028;-73
2023/08/03 01:52:20;;;;;;;8.20;4.95;;;17.50;99.90;;;;;;5073588;28;20053;-73
2023/08/03 01:54:45;;;;;;;9.35;4.63;;;17.60;99.90;;;;;;5074569;28;20090;-75
2023/08/03 01:57:11;;;;;;;6.55;4.38;;;17.50;99.90;;;;;;5056904;28;20030;-74
2023/08/03 01:59:37;;;;;;;11.13;4.72;;;17.50;99.90;;;;;;5073608;28;20021;-74
2023/08/03 02:02:02;;;;;;;7.00;4.50;;;17.60;99.90;;;;;;5073647;28;20037;-74
2023/08/03 02:04:28;;;;;;;7.82;5.00;;;17.50;99.90;;;;;;5073485;28;20028;-75
2023/08/03 02:06:56;;;;;;;10.63;5.30;;;17.50;99.90;;;;;;5074362;28;20029;-75
2023/08/03 02:09:21;;;;;;;6.93;4.78;;;17.50;99.90;;;;;;5074340;28;20029;-75
2023/08/03 02:11:47;;;;;;;8.75;4.38;;;17.50;99.90;;;;;;5074339;28;20047;-74
2023/08/03 02:14:13;;;;;;;8.15;4.78;;;17.50;99.90;;;;;;5056652;28;20104;-74
2023/08/03 02:16:38;;;;;;;9.15;4.55;;;17.50;99.90;;;;;;5074345;28;20031;-75
2023/08/03 02:19:04;;;;;;;8.35;4.57;;;17.50;99.90;;;;;;5073266;28;20112;-74
2023/08/03 02:21:29;;;;;;;6.15;4.43;;;17.50;99.90;;;;;;5073131;28;20025;-74
2023/08/03 02:23:55;;;;;;;7.70;4.18;;;17.50;99.90;;;;;;5074182;28;20555;-75
2023/08/03 02:26:21;;;;;;;7.70;3.38;;;17.60;99.90;;;;;;5056374;28;20028;-75
2023/08/03 02:28:46;;;;;;;7.00;3.30;;;17.50;99.90;;;;;;5073974;28;20025;-74
2023/08/03 02:31:12;;;;;;;5.45;3.50;;;17.50;99.90;;;;;;5072988;28;20035;-75
2023/08/03 02:33:37;;;;;;;6.53;2.65;;;17.60;99.90;;;;;;5072695;28;20033;-75
2023/08/03 02:36:03;;;;;;;3.05;1.90;;;17.50;99.90;;;;;;5073688;28;20021;-75
2023/08/03 02:38:29;;;;;;;4.28;2.00;;;17.50;99.90;;;;;;5073818;28;20033;-74
2023/08/03 02:40:57;;;;;;;4.78;2.33;;;17.50;99.90;;;;;;5073736;28;20025;-75
2023/08/03 02:43:23;;;;;;;4.57;2.28;;;17.50;99.90;;;;;;5072754;28;20075;-75
2023/08/03 02:45:49;;;;;;;7.80;2.33;;;17.50;99.90;;;;;;5072618;28;20033;-74
2023/08/03 02:48:14;;;;;;;6.38;2.30;;;17.50;99.90;;;;;;5073799;28;20036;-74
2023/08/03 02:50:40;;;;;;;6.35;2.78;;;17.40;99.90;;;;;;5073576;28;20040;-75
2023/08/03 02:53:05;;;;;;;7.40;3.28;;;17.40;99.90;;;;;;5073299;28;20029;-75
2023/08/03 02:55:31;;;;;;;6.57;2.60;;;17.50;99.90;;;;;;5072632;28;20400;-76
2023/08/03 02:57:57;;;;;;;6.05;2.75;;;17.40;99.90;;;;;;5073470;28;20040;-75
2023/08/03 03:00:22;;;;;;;7.75;3.05;;;17.40;99.90;;;;;;5073574;28;20051;-74
2023/08/03 03:02:48;;;;;;;8.68;2.70;;;17.40;99.90;;;;;;5055842;28;20040;-74
2023/08/03 03:05:14;;;;;;;7.03;2.85;;;17.40;99.90;;;;;;5072427;28;20033;-75
2023/08/03 03:07:39;;;;;;;9.10;3.00;;;17.40;99.90;;;;;;5072412;28;20112;-74
2023/08/03 03:10:05;;;;;;;12.27;3.15;;;17.40;99.90;;;;;;5072388;28;20037;-75
2023/08/03 03:12:31;;;;;;;6.97;3.55;;;17.50;99.90;;;;;;5055625;28;20047;-75
2023/08/03 03:14:56;;;;;;;9.23;3.60;;;17.50;99.90;;;;;;5055603;28;20021;-74
2023/08/03 03:17:22;;;;;;;6.47;3.05;;;17.50;99.90;;;;;;5073208;28;20040;-74
2023/08/03 03:19:48;;;;;;;9.07;3.08;;;17.40;99.90;;;;;;5073167;28;20029;-74
2023/08/03 03:22:13;;;;;;;12.52;3.78;;;17.40;99.90;;;;;;5073160;28;20044;-76
2023/08/03 03:24:39;;;;;;;6.32;2.83;;;17.40;99.90;;;;;;5073168;28;20037;-74
2023/08/03 03:27:05;;;;;;;10.75;3.25;;;17.40;99.90;;;;;;5072184;28;20049;-74
2023/08/03 03:29:30;;;;;;;9.32;2.92;;;17.30;99.90;;;;;;5072107;28;20029;-74
2023/08/03 03:31:56;;;;;;;13.38;3.20;;;17.30;99.90;;;;;;5073062;28;20029;-75
2023/08/03 03:34:21;;;;;;;10.38;2.78;;;17.20;99.90;;;;;;5072980;28;20021;-75
2023/08/03 03:36:48;;;;;;;8.75;3.13;;;17.30;99.90;;;;;;5071935;28;20508;-74
2023/08/03 03:39:13;;;;;;;9.77;3.08;;;17.20;99.90;;;;;;5072038;28;20055;-75
2023/08/03 03:41:39;;;;;;;7.78;3.13;;;17.20;99.90;;;;;;5072082;28;20029;-75
2023/08/03 03:44:05;;;;;;;10.10;3.85;;;17.20;99.90;;;;;;5071936;28;20044;-75
2023/08/03 03:46:30;;;;;;;8.15;3.38;;;17.20;99.90;;;;;;5072027;28;20025;-75
2023/08/03 03:48:56;;;;;;;5.13;2.72;;;17.20;99.90;;;;;;5072942;28;20033;-74
2023/08/03 03:51:22;;;;;;;10.02;2.67;;;17.20;99.90;;;;;;5055230;28;20029;-74
2023/08/03 03:53:47;;;;;;;11.20;2.85;;;17.30;99.90;;;;;;5055594;28;20025;-74
2023/08/03 03:56:13;;;;;;;5.22;2.45;;;17.20;99.90;;;;;;5071850;28;20025;-73
2023/08/03 03:58:38;;;;;;;6.47;2.45;;;17.20;99.90;;;;;;5071980;28;20018;-74
2023/08/03 04:01:05;;;;;;;6.18;2.67;;;17.20;99.90;;;;;;5071798;28;20033;-75
2023/08/03 04:03:30;;;;;;;4.13;2.40;;;17.20;99.90;;;;;;5072792;28;20033;-75
2023/08/03 04:05:56;;;;;;;8.27;2.45;;;17.20;99.90;;;;;;5056400;28;20090;-74
2023/08/03 04:08:22;;;;;;;5.40;2.20;;;17.20;99.90;;;;;;5075762;28;20039;-75
2023/08/03 04:10:47;;;;;;;6.78;2.20;;;17.20;99.90;;;;;;5075671;28;20492;-75
2023/08/03 04:13:13;;;;;;;5.85;2.40;;;17.10;99.90;;;;;;5075627;28;20036;-74
2023/08/03 04:15:39;;;;;;;3.97;2.08;;;17.10;99.90;;;;;;5075607;28;20029;-75
2023/08/03 04:18:04;;;;;;;4.95;2.03;;;17.10;99.90;;;;;;5076460;28;20033;-74
2023/08/03 04:20:30;;;;;;;7.90;2.33;;;17.10;99.90;;;;;;5076420;28;20029;-75
2023/08/03 04:22:55;;;;;;;7.30;2.80;;;17.10;99.90;;;;;;5075340;28;20037;-75
2023/08/03 04:25:21;;;;;;;6.72;2.50;;;17.10;99.90;;;;;;5075361;28;20033;-75
2023/08/03 04:27:47;;;;;;;7.55;2.58;;;17.10;99.90;;;;;;5076304;28;20044;-75
2023/08/03 04:30:13;;;;;;;7.40;2.10;;;17.10;99.90;;;;;;5075266;28;20534;-76
2023/08/03 04:32:42;;;;;;;4.93;1.80;;;17.10;99.90;;;;;;5075189;28;20021;-75
2023/08/03 04:35:09;;;;;;;5.38;2.00;;;17.20;99.90;;;;;;5076098;28;20059;-75
2023/08/03 04:37:35;;;;;;;4.55;2.20;;;17.10;99.90;;;;;;5075728;28;20068;-76
2023/08/03 04:40:00;;;;;;;3.40;1.50;;;17.10;99.90;;;;;;5076191;28;20033;-75
2023/08/03 04:42:26;;;;;;;3.83;1.50;;;17.10;99.90;;;;;;5076046;28;20033;-75
2023/08/03 04:44:52;;;;;;;3.40;1.67;;;17.20;99.90;;;;;;5075968;28;20032;-75
2023/08/03 04:47:18;;;;;;;5.18;1.83;;;17.20;99.90;;;;;;5074960;28;20025;-74
2023/08/03 04:49:44;;;;;;;2.53;1.77;;;17.20;99.90;;;;;;5074829;28;20032;-75
2023/08/03 04:52:09;;;;;;;3.30;1.38;;;17.20;99.90;;;;;;5075774;28;20036;-75
2023/08/03 04:54:35;;;;;;;3.83;1.40;;;17.20;99.90;;;;;;5074911;28;20021;-75
2023/08/03 04:57:00;;;;;;;2.00;1.30;;;17.20;99.90;;;;;;5075733;28;20085;-74
2023/08/03 04:59:26;;;;;;;2.60;1.27;;;17.30;99.90;;;;;;5058010;28;20025;-74
2023/08/03 05:01:52;;;;;;;2.33;1.10;;;17.30;99.90;;;;;;5075598;28;20029;-74
2023/08/03 05:04:17;;;;;;;1.95;0.98;;;17.30;99.90;;;;;;5075669;28;20040;-74
2023/08/03 05:06:43;;;;;;;2.10;1.13;;;17.30;99.90;;;;;;5075567;28;20032;-75
2023/08/03 05:09:08;;;;;;;2.92;1.20;;;17.30;99.90;;;;;;5074526;28;20032;-75
2023/08/03 05:11:34;;;;;;;4.22;1.13;;;17.30;99.90;;;;;;5075358;28;20128;-74
2023/08/03 05:14:00;;;;;;;2.22;1.20;;;17.30;99.90;;;;;;5057776;28;20040;-75
2023/08/03 05:16:26;;;;;;;3.33;1.50;;;17.30;99.90;;;;;;5075199;28;20029;-75
2023/08/03 05:18:52;;;;;;;2.75;1.40;;;17.30;99.90;;;;;;5075348;28;20021;-74
2023/08/03 05:21:18;;;;;;;2.70;1.80;;;17.30;99.90;;;;;;5075286;28;20521;-75
2023/08/03 05:23:45;;;;;;;2.92;1.70;;;17.40;99.90;;;;;;5075266;28;20033;-74
2023/08/03 05:26:11;;;;;;;3.40;1.70;;;17.30;99.90;;;;;;5074172;28;20071;-75
2023/08/03 05:28:38;;;;;;;3.50;1.48;;;17.30;99.90;;;;;;5075209;28;20108;-75
2023/08/03 05:31:05;;;;;;;2.38;1.50;;;17.30;99.90;;;;;;5074082;28;20028;-75
2023/08/03 05:33:35;;;;;;;2.10;1.30;;;17.30;99.90;;;;;;5073880;28;20100;-75
2023/08/03 05:36:02;;;;;;;3.10;1.60;;;17.30;99.90;;;;;;5074698;28;20025;-76
2023/08/03 05:38:28;;;;;;;3.28;1.60;;;17.30;99.90;;;;;;5074785;28;20049;-75
2023/08/03 05:40:54;;;;;;;2.28;1.23;;;17.30;99.90;;;;;;5074912;28;20024;-75
2023/08/03 05:43:24;;;;;;;3.33;1.60;;;17.30;99.90;;;;;;5073898;28;20148;-75
2023/08/03 05:45:56;;;;;;;2.05;1.48;;;17.30;99.90;;;;;;5074876;28;20104;-75
2023/08/03 05:48:22;;;;;;;2.20;1.27;;;17.30;99.90;;;;;;5074761;28;20016;-76
2023/08/03 05:50:50;;;;;;;5.07;1.50;;;17.30;99.90;;;;;;5074729;28;20044;-75
2023/08/03 05:53:16;;;;;;;3.55;1.75;;;17.40;99.90;;;;;;5074615;28;20050;-75
2023/08/03 05:55:43;;;;;;;3.30;1.30;;;17.40;99.90;;;;;;5073680;28;20135;-75
2023/08/03 05:58:11;;;;;;;4.10;1.73;;;17.40;99.90;;;;;;5074622;28;20070;-76
2023/08/03 06:00:39;;;;;;;4.13;1.40;;;17.40;99.90;;;;;;5073652;28;20036;-76
2023/08/03 06:03:04;;;;;;;4.63;1.33;;;17.40;99.90;;;;;;5074464;28;20047;-75
2023/08/03 06:05:47;;;;;;;5.85;1.70;;;17.40;99.90;;;;;;5074420;28;20036;-75
2023/08/03 06:08:19;;;;;;;3.47;1.45;;;17.40;99.90;;;;;;5074393;28;20048;-75
2023/08/03 06:10:47;;;;;;;6.33;2.00;;;17.50;99.90;;;;;;5074337;28;20051;-75
2023/08/03 06:13:17;;;;;;;4.30;1.10;;;17.50;99.90;;;;;;5074201;28;20310;-74
2023/08/03 06:15:45;;;;;;;6.78;1.10;;;17.50;99.90;;;;;;5073245;28;20017;-75
2023/08/03 06:18:19;;;;;;;4.25;1.30;;;17.50;99.90;;;;;;5074195;28;20033;-74
2023/08/03 06:20:48;;;;;;;7.07;1.60;;;17.50;99.90;;;;;;5074141;28;20021;-76
2023/08/03 06:23:19;;;;;;;6.82;1.85;;;17.50;99.90;;;;;;5073374;28;20025;-75
2023/08/03 06:25:46;;;;;;;5.90;1.40;;;17.50;99.90;;;;;;5074087;28;20036;-74
2023/08/03 06:28:15;;;;;;;4.68;1.30;;;17.50;99.90;;;;;;5073410;28;20029;-73
2023/08/03 06:30:41;;;;;;;9.52;1.98;;;17.60;99.90;;;;;;5073967;28;20033;-74
2023/08/03 06:33:10;;;;;;;2.90;0.95;;;17.60;99.90;;;;;;5073827;28;20029;-75
2023/08/03 06:35:38;;;;;;;5.05;1.40;;;17.60;99.90;;;;;;5072894;28;20025;-75
2023/08/03 06:38:07;;;;;;;4.80;1.45;;;17.60;99.90;;;;;;5073631;28;20045;-74
2023/08/03 06:40:33;;;;;;;6.40;1.73;;;17.60;99.90;;;;;;5073825;28;20077;-74
2023/08/03 06:43:02;;;;;;;3.67;1.30;;;17.60;99.90;;;;;;5073760;28;20021;-75
2023/08/03 06:45:32;;;;;;;6.00;2.20;;;17.60;99.90;;;;;;5073737;28;20020;-74
2023/08/03 06:47:58;;;;;;;3.00;1.33;;;17.60;99.90;;;;;;5072737;28;20025;-75
2023/08/03 06:50:24;;;;;;;5.32;1.38;;;17.60;99.90;;;;;;5073620;28;20029;-75
2023/08/03 06:52:51;;;;;;;6.25;1.50;;;17.60;99.90;;;;;;5072598;28;20029;-74
2023/08/03 06:55:17;;;;;;;4.30;1.05;;;17.60;99.90;;;;;;5073707;28;20029;-75
2023/08/03 06:57:43;;;;;;;3.42;0.90;;;17.60;99.90;;;;;;5073471;28;20048;-75
2023/08/03 07:00:09;;;;;;;8.00;1.20;;;17.60;99.60;;;;;;5072553;28;20044;-74
2023/08/03 07:02:35;;;;;;;3.17;0.85;;;17.60;99.70;;;;;;5072496;28;20039;-74
2023/08/03 07:05:00;;;;;;;5.70;1.00;;;17.60;99.50;;;;;;5073485;28;20033;-74
2023/08/03 07:07:27;;;;;;;6.07;1.10;;;17.60;99.50;;;;;;5073477;28;20092;-75
2023/08/03 07:09:53;;;;;;;3.20;1.13;;;17.60;99.20;;;;;;5056135;28;20021;-73
2023/08/03 07:12:19;;;;;;;5.03;0.73;;;17.50;99.40;;;;;;5073194;28;20088;-74
2023/08/03 07:14:45;;;;;;;5.60;1.13;;;17.50;99.70;;;;;;5073324;28;20029;-74
2023/08/03 07:17:10;;;;;;;2.67;0.93;;;17.50;99.90;;;;;;5055662;28;20083;-75
2023/08/03 07:19:36;;;;;;;2.38;1.35;;;17.50;99.90;;;;;;5073173;28;20051;-73
2023/08/03 07:22:02;;;;;;;2.22;1.13;;;17.50;99.90;;;;;;5073171;28;20108;-74
2023/08/03 07:24:30;;;;;;;4.70;1.13;;;17.50;99.90;;;;;;5072255;28;20100;-73
2023/08/03 07:26:56;;;;;;;3.00;0.82;;;17.50;99.90;;;;;;5073129;28;20472;-74
2023/08/03 07:29:21;;;;;;;5.45;1.65;;;17.60;99.90;;;;;;5055521;28;20037;-74
2023/08/03 07:31:50;;;;;;;3.97;1.27;;;17.60;99.70;;;;;;5039028;28;20036;-74
2023/08/03 07:34:15;;;;;;;3.53;1.05;;;17.70;99.60;;;;;;5073073;28;20031;-74
2023/08/03 07:36:41;;;;;;;5.28;1.25;;;17.70;99.20;;;;;;5072026;28;20025;-74
2023/08/03 07:39:06;;;;;;;3.33;0.88;;;17.70;99.30;;;;;;5072886;28;20053;-74
2023/08/03 07:41:33;;;;;;;6.28;1.60;;;17.80;99.20;;;;;;5074289;28;20033;-74
2023/08/03 07:43:58;;;;;;;2.35;1.10;;;17.80;98.80;;;;;;5077121;28;20018;-74
2023/08/03 07:46:24;;;;;;;2.88;1.10;;;17.80;98.90;;;;;;5077106;28;20028;-74
2023/08/03 07:48:49;;;;;;;6.10;1.35;;;17.80;99.10;;;;;;5077047;28;20029;-75
2023/08/03 07:51:16;;;;;;;3.88;0.90;;;17.90;99.20;;;;;;5076979;28;20055;-74
2023/08/03 07:53:42;;;;;;;3.45;1.10;;;17.80;99.00;;;;;;5076888;28;20036;-75
2023/08/03 07:56:19;;;;;;;3.80;1.10;;;17.90;99.10;;;;;;5075927;28;20021;-75
2023/08/03 07:58:45;;;;;;;4.30;0.88;;;17.90;99.30;;;;;;5076979;28;20079;-75
2023/08/03 08:01:11;;;;;;;4.00;1.35;;;17.90;99.60;;;;;;5059323;28;20017;-75
2023/08/03 08:03:38;;;;;;;4.00;1.33;;;17.80;99.30;;;;;;5059218;28;20053;-75
2023/08/03 08:06:12;;;;;;;3.42;1.00;;;17.70;99.40;;;;;;5075755;28;20028;-73
2023/08/03 08:08:38;;;;;;;9.38;1.52;;;17.70;99.40;;;;;;5076745;28;20060;-74
2023/08/03 08:11:04;;;;;;;3.28;1.10;;;17.70;99.40;;;;;;5076620;28;20059;-75
2023/08/03 08:13:30;;;;;;;5.72;1.10;;;17.70;99.30;;;;;;5059053;28;20029;-73
2023/08/03 08:15:59;;;;;;;4.70;1.48;;;17.60;99.40;;;;;;5075615;28;20025;-75
2023/08/03 08:18:24;;;;;;;4.35;1.38;;;17.80;99.50;;;;;;5075461;28;20100;-75
2023/08/03 08:21:11;;;;;;;6.75;1.83;;;17.80;99.50;;;;;;5075524;28;20033;-75
2023/08/03 08:23:37;;;;;;;3.92;1.20;;;17.70;99.70;;;;;;5076413;28;20049;-75
2023/08/03 08:26:14;;;;;;;5.82;1.60;;;17.70;99.90;;;;;;5076332;28;20029;-75
2023/08/03 08:28:44;;;;;;;4.72;1.33;;;17.70;99.90;;;;;;5075394;28;20029;-74
2023/08/03 08:31:10;;;;;;;3.25;1.20;;;17.70;99.90;;;;;;5076177;28;20442;-74
2023/08/03 08:33:37;;;;;;;4.57;0.95;;;17.70;99.90;;;;;;5075126;28;20044;-74
2023/08/03 08:36:03;;;;;;;9.73;1.70;;;17.70;99.90;;;;;;5076182;28;20013;-74
2023/08/03 08:38:30;;;;;;;3.28;1.42;;;17.60;99.90;;;;;;5075980;28;20090;-75
2023/08/03 08:40:56;;;;;;;6.28;1.38;;;17.70;99.90;;;;;;5075046;28;20036;-73
2023/08/03 08:43:21;;;;;;;4.03;1.10;;;17.70;99.90;;;;;;5075991;28;20033;-74
2023/08/03 08:45:47;;;;;;;4.00;1.25;;;17.70;99.90;;;;;;5075963;28;20048;-74
2023/08/03 08:48:14;;;;;;;4.50;1.30;;;17.70;99.90;;;;;;5058323;28;20092;-73
2023/08/03 08:50:41;;;;;;;5.50;1.60;;;17.70;99.90;;;;;;5075895;28;20032;-74
2023/08/03 08:53:07;;;;;;;5.00;1.63;;;17.70;99.90;;;;;;5074441;28;20109;-73
2023/08/03 08:55:33;;;;;;;5.22;1.63;;;17.70;99.90;;;;;;5075805;28;20025;-74
2023/08/03 08:57:59;;;;;;;5.05;1.48;;;17.70;99.90;;;;;;5075774;28;20384;-73
2023/08/03 09:00:26;;;;;;;3.42;1.17;;;17.70;99.90;;;;;;5074742;28;20017;-73
2023/08/03 09:03:11;;;;;;;5.38;1.30;;;17.80;99.90;;;;;;5074829;28;20036;-74
2023/08/03 09:05:38;;;;;;;4.10;1.40;;;17.90;99.90;;;;;;5075779;28;20032;-74
2023/08/03 09:08:06;;;;;;;5.93;1.70;;;17.90;99.90;;;;;;5074641;28;20104;-74
2023/08/03 09:10:50;;;;;;;3.30;1.20;;;17.90;99.90;;;;;;5075474;28;20021;-73
2023/08/03 09:13:29;;;;;;;4.70;1.90;;;18.00;99.90;;;;;;5074465;28;20029;-74
2023/08/03 09:15:55;;;;;;;5.65;1.60;;;18.00;99.90;;;;;;5075414;28;20022;-74
2023/08/03 09:18:28;;;;;;;4.55;1.60;;;17.90;99.90;;;;;;5057673;28;20053;-74
2023/08/03 09:21:17;;;;;;;4.68;1.63;;;17.90;99.90;;;;;;5075478;28;20028;-74
2023/08/03 09:23:43;;;;;;;3.97;1.88;;;18.00;99.90;;;;;;5075235;28;20096;-74
2023/08/03 09:26:10;;;;;;;5.88;1.77;;;18.00;99.90;;;;;;5075229;28;20029;-74
2023/08/03 09:28:38;;;;;;;5.10;1.80;;;18.00;99.90;;;;;;5074212;28;20021;-74
2023/08/03 09:31:04;;;;;;;4.43;1.63;;;18.00;99.90;;;;;;5075165;28;20025;-73
2023/08/03 09:33:31;;;;;;;6.20;2.13;;;18.00;99.90;;;;;;5074987;28;20032;-74
2023/08/03 09:36:08;;;;;;;5.70;1.90;;;18.10;99.90;;;;;;5075028;28;20025;-75
2023/08/03 09:38:34;;;;;;;6.35;2.20;;;18.00;99.90;;;;;;5073697;28;20045;-74
2023/08/03 09:41:00;;;;;;;6.93;2.17;;;18.00;99.90;;;;;;5074959;28;20032;-75
2023/08/03 09:43:27;;;;;;;5.75;2.42;;;18.00;99.90;;;;;;5074052;28;20021;-75
2023/08/03 09:45:54;;;;;;;5.60;2.50;;;18.10;99.90;;;;;;5073853;28;20021;-75
2023/08/03 09:48:20;;;;;;;5.28;2.40;;;18.10;99.90;;;;;;5074843;28;20061;-75
2023/08/03 09:50:54;;;;;;;10.48;2.53;;;18.20;99.90;;;;;;5074808;28;20025;-75
2023/08/03 09:53:25;;;;;;;6.30;2.85;;;18.30;99.90;;;;;;5073677;28;20089;-75
2023/08/03 09:56:00;;;;;;;6.53;2.08;;;18.30;99.90;;;;;;5074578;28;20029;-75
2023/08/03 09:58:42;;;;;;;9.05;2.28;;;18.30;99.90;;;;;;5074652;28;20024;-75
2023/08/03 10:01:12;;;;;;;4.17;2.50;;;18.30;99.90;;;;;;5073588;28;20032;-74
2023/08/03 10:03:41;;;;;;;7.13;2.95;;;18.40;99.90;;;;;;5073862;28;20267;-74
2023/08/03 10:06:17;;;;;;;7.35;2.78;;;18.40;99.90;;;;;;5073433;28;20085;-74
2023/08/03 10:09:03;;;;;;;7.40;3.40;;;18.50;99.90;;;;;;5073489;28;20045;-74
2023/08/03 10:11:48;;;;;;;10.77;3.83;;;18.60;99.90;;;;;;5074445;28;20021;-74
2023/08/03 10:14:19;;;;;;;5.75;3.15;;;18.70;99.90;;;;;;5073398;28;20048;-75
2023/08/03 10:16:45;;;;;;;7.22;3.50;;;18.70;99.90;;;;;;5073309;28;20391;-74
2023/08/03 10:19:11;;;;;;;8.40;3.00;;;18.90;99.90;;;;;;5074211;28;20025;-74
2023/08/03 10:21:37;;;;;;;7.20;3.53;;;19.00;99.90;;;;;;5073111;28;20023;-75
2023/08/03 10:24:18;;;;;;;8.43;3.58;;;19.10;99.90;;;;;;5073098;28;20020;-74
2023/08/03 10:26:48;;;;;;;4.65;2.72;;;19.30;99.80;;;;;;5074239;28;20088;-74
2023/08/03 10:29:14;;;;;;;6.18;3.15;;;19.40;99.90;;;;;;5074151;28;20017;-74
2023/08/03 10:31:55;;;;;;;6.80;3.20;;;19.60;99.70;;;;;;5073894;28;20063;-73
2023/08/03 10:34:26;;;;;;;8.88;2.67;;;19.90;99.90;;;;;;5073886;28;20044;-75
2023/08/03 10:36:53;;;;;;;9.20;3.03;;;20.00;99.50;;;;;;5073895;28;20021;-74
2023/08/03 10:39:48;;;;;;;7.00;3.30;;;20.10;98.90;;;;;;5072756;28;20049;-74
2023/08/03 10:42:34;;;;;;;7.15;3.05;;;20.10;98.10;;;;;;5073811;28;20051;-75
2023/08/03 10:45:21;;;;;;;11.75;3.55;;;20.10;97.50;;;;;;5073776;28;20029;-74
2023/08/03 10:47:47;;;;;;;7.63;3.20;;;20.10;97.30;;;;;;5073701;28;20036;-75
2023/08/03 10:50:13;;;;;;;7.78;3.10;;;20.10;97.60;;;;;;5073636;28;20033;-74
2023/08/03 10:52:38;;;;;;;5.60;2.60;;;20.20;97.90;;;;;;5072551;28;20037;-74
2023/08/03 10:55:27;;;;;;;6.80;2.28;;;20.20;97.00;;;;;;5073535;28;20071;-74
2023/08/03 10:57:55;;;;;;;6.00;2.17;;;20.10;96.00;;;;;;5072560;28;20059;-74
2023/08/03 11:00:21;;;;;;;11.25;2.30;;;20.00;96.20;;;;;;5073496;28;20041;-76
2023/08/03 11:02:47;;;;;;;3.83;2.20;;;20.00;96.40;;;;;;5072418;28;20021;-75
2023/08/03 11:05:13;;;;;;;5.78;2.25;;;20.00;96.40;;;;;;5073415;28;20072;-76
2023/08/03 11:07:41;;;;;;;6.15;2.40;;;19.90;96.40;;;;;;5073399;28;20028;-76
2023/08/03 11:10:11;;;;;;;7.25;2.38;;;19.90;96.30;;;;;;5073415;28;20055;-76
2023/08/03 11:12:38;;;;;;;4.80;2.35;;;19.90;96.50;;;;;;5072452;28;20028;-77
2023/08/03 11:15:06;;;;;;;7.28;2.30;;;20.00;96.30;;;;;;5072068;28;20085;-76
2023/08/03 11:17:35;;;;;;;7.25;1.88;;;20.10;96.60;;;;;;5055899;28;20025;-76
2023/08/03 11:20:06;;;;;;;6.93;2.65;;;20.10;96.20;;;;;;5073251;28;20032;-75
2023/08/03 11:22:31;;;;;;;5.28;2.22;;;20.10;96.30;;;;;;5072364;28;20039;-76
2023/08/03 11:25:00;;;;;;;9.68;2.33;;;20.10;95.50;;;;;;5073115;28;20025;-75
2023/08/03 11:27:26;;;;;;;5.13;2.42;;;20.10;96.00;;;;;;5073310;28;20047;-76
2023/08/03 11:29:53;;;;;;;5.70;2.28;;;20.20;95.90;;;;;;5072177;28;20025;-75
2023/08/03 11:32:29;;;;;;;4.45;2.38;;;20.30;95.60;;;;;;5073034;28;20025;-75
2023/08/03 11:35:05;;;;;;;6.70;2.92;;;20.40;95.30;;;;;;5073045;28;20036;-75
2023/08/03 11:37:32;;;;;;;4.53;2.35;;;20.40;95.20;;;;;;5071948;28;20085;-76
2023/08/03 11:40:00;;;;;;;5.63;2.20;;;20.50;95.00;;;;;;5072800;28;20041;-75
2023/08/03 11:42:26;;;;;;;5.82;2.50;;;20.40;94.80;;;;;;5055595;28;20032;-76
2023/08/03 11:44:52;;;;;;;6.80;2.20;;;20.50;95.80;;;;;;5071970;28;20021;-76
2023/08/03 11:47:17;;;;;;;3.95;2.13;;;20.60;95.70;;;;;;5055414;28;20120;-76
2023/08/03 11:49:44;;;;;;;4.38;1.95;;;20.50;95.00;;;;;;5055425;28;20089;-76
2023/08/03 11:52:20;;;;;;;3.53;1.70;;;20.30;94.90;;;;;;5055426;28;20040;-76
2023/08/03 11:54:46;;;;;;;5.43;2.22;;;20.10;94.60;;;;;;5071954;28;20045;-77
2023/08/03 11:59:56;;;;;;;4.25;1.30;;;19.90;96.20;;;;;;5073118;28;20059;-76
2023/08/03 12:02:38;;;;;;;4.97;1.40;;;19.80;96.40;;;;;;5072891;28;20017;-76
2023/08/03 12:05:05;;;;;;;2.70;1.20;;;19.70;96.50;;;;;;5071846;28;20025;-77
2023/08/03 12:07:31;;;;;;;3.58;1.38;;;19.60;96.60;;;;;;5071744;28;20033;-77
2023/08/03 12:09:57;;;;;;;2.88;1.40;;;19.60;96.90;;;;;;5071882;28;20075;-78
2023/08/03 12:12:22;;;;;;;2.85;1.20;;;19.60;97.20;;;;;;5071856;28;20033;-77
2023/08/03 12:14:48;;;;;;;2.05;1.30;;;19.50;97.30;;;;;;5055063;28;20025;-76
2023/08/03 12:17:16;;;;;;;2.75;1.00;;;19.50;97.40;;;;;;5071766;28;20018;-74
2023/08/03 12:19:41;;;;;;;2.15;0.90;;;19.50;97.40;;;;;;5072700;28;20051;-75
2023/08/03 12:22:07;;;;;;;2.85;1.40;;;19.40;97.30;;;;;;5072651;28;20033;-74
2023/08/03 12:24:33;;;;;;;3.08;1.10;;;19.40;97.30;;;;;;5072614;28;20036;-75
2023/08/03 12:27:00;;;;;;;2.25;1.40;;;19.40;97.40;;;;;;5073806;28;20035;-76
2023/08/03 12:29:26;;;;;;;2.60;1.10;;;19.30;97.40;;;;;;5075394;28;20043;-75
2023/08/03 12:31:52;;;;;;;2.85;1.25;;;19.30;97.40;;;;;;5058646;28;20029;-76
2023/08/03 12:34:18;;;;;;;3.40;1.40;;;19.30;97.50;;;;;;5075402;28;20017;-74
2023/08/03 12:36:43;;;;;;;3.75;1.40;;;19.30;97.40;;;;;;5075200;28;20036;-75
2023/08/03 12:39:09;;;;;;;2.85;1.17;;;19.30;97.50;;;;;;5075713;28;20083;-75
2023/08/03 12:41:35;;;;;;;3.63;1.23;;;19.30;97.40;;;;;;5076123;28;20051;-76
2023/08/03 12:44:01;;;;;;;2.42;1.55;;;19.30;97.50;;;;;;5076093;28;20076;-75
2023/08/03 12:46:26;;;;;;;5.70;2.35;;;19.30;98.10;;;;;;5058483;28;20021;-75
2023/08/03 12:48:52;;;;;;;4.28;2.17;;;19.40;97.80;;;;;;5058415;28;20025;-75